createdAt,value
2024-01-16T00:02:20.761Z,66.81
2024-01-16T00:06:03.839Z,67.13
2024-01-16T00:09:47.847Z,67.90
2024-01-16T00:13:32.120Z,67.94
2024-01-16T00:17:15.052Z,67.85
2024-01-16T00:20:57.984Z,67.55
2024-01-16T00:24:41.329Z,67.38
2024-01-16T00:28:24.188Z,66.00
2024-01-16T00:32:08.675Z,66.58
2024-01-16T00:35:52.414Z,66.17
2024-01-16T00:39:35.399Z,65.94
2024-01-16T00:43:18.354Z,67.07
2024-01-16T00:47:02.886Z,65.74
2024-01-16T00:50:47.520Z,66.18
2024-01-16T00:54:30.488Z,67.12
2024-01-16T00:58:13.800Z,66.77
2024-01-16T01:01:56.661Z,66.94
2024-01-16T01:05:39.934Z,66.76
2024-01-16T01:09:24.616Z,67.67
2024-01-16T01:13:07.480Z,66.85
2024-01-16T01:16:50.399Z,67.06
2024-01-16T01:20:33.431Z,67.56
2024-01-16T01:24:16.427Z,67.21
2024-01-16T01:28:01.353Z,67.82
2024-01-16T01:31:47.974Z,67.35
2024-01-16T01:35:30.838Z,67.97
2024-01-16T01:39:13.773Z,67.42
2024-01-16T01:42:56.680Z,67.08
2024-01-16T01:46:41.417Z,66.89
2024-01-16T01:50:24.358Z,67.15
2024-01-16T01:54:07.346Z,67.29
2024-01-16T01:57:50.178Z,67.41
2024-01-16T02:01:33.930Z,66.91
2024-01-16T02:05:18.454Z,66.74
2024-01-16T02:09:01.513Z,67.28
2024-01-16T02:12:44.409Z,66.45
2024-01-16T02:16:27.403Z,66.54
2024-01-16T02:20:11.514Z,66.52
2024-01-16T02:23:56.191Z,66.41
2024-01-16T02:27:39.296Z,66.10
2024-01-16T02:31:22.125Z,67.05
2024-01-16T02:35:06.382Z,66.65
2024-01-16T02:38:49.757Z,67.96
2024-01-16T02:42:34.023Z,67.51
2024-01-16T02:46:17.288Z,67.67
2024-01-16T02:50:00.499Z,67.52
2024-01-16T02:53:43.572Z,68.16
2024-01-16T02:57:26.581Z,68.05
2024-01-16T03:01:10.897Z,67.99
2024-01-16T03:04:53.887Z,67.97
2024-01-16T03:08:36.810Z,67.84
2024-01-16T03:12:19.696Z,67.81
2024-01-16T03:16:03.218Z,67.40
2024-01-16T03:19:47.659Z,67.58
2024-01-16T03:23:30.604Z,67.97
2024-01-16T03:27:13.758Z,67.12
2024-01-16T03:30:56.799Z,68.15
2024-01-16T03:34:39.784Z,67.72
2024-01-16T03:38:24.132Z,68.04
2024-01-16T03:42:07.139Z,68.24
2024-01-16T03:45:50.076Z,68.22
2024-01-16T03:49:33.064Z,68.68
2024-01-16T03:53:16.013Z,69.20
2024-01-16T03:57:03.336Z,68.97
2024-01-16T04:00:46.587Z,68.50
2024-01-16T04:04:29.462Z,68.63
2024-01-16T04:08:13.663Z,68.67
2024-01-16T04:11:56.652Z,68.74
2024-01-16T04:15:41.811Z,68.01
2024-01-16T04:19:24.923Z,68.16
2024-01-16T04:23:08.088Z,67.61
2024-01-16T04:26:51.894Z,68.02
2024-01-16T04:30:35.037Z,68.37
2024-01-16T04:34:19.496Z,67.53
2024-01-16T04:38:02.337Z,67.89
2024-01-16T04:41:45.372Z,68.10
2024-01-16T04:45:28.362Z,67.91
2024-01-16T04:49:11.292Z,69.01
2024-01-16T04:52:55.536Z,68.45
2024-01-16T04:56:38.448Z,68.63
2024-01-16T05:00:21.446Z,68.39
2024-01-16T05:04:05.134Z,69.09
2024-01-16T05:07:48.175Z,68.34
2024-01-16T05:11:32.684Z,68.75
2024-01-16T05:15:16.021Z,69.02
2024-01-16T05:18:59.062Z,69.28
2024-01-16T05:22:42.089Z,68.88
2024-01-16T05:26:27.361Z,68.91
2024-01-16T05:30:12.632Z,69.25
2024-01-16T05:33:55.671Z,69.39
2024-01-16T05:37:38.774Z,69.03
2024-01-16T05:41:21.753Z,69.41
2024-01-16T05:45:05.262Z,69.60
2024-01-16T05:48:49.746Z,69.25
2024-01-16T05:52:32.769Z,68.71
2024-01-16T05:56:15.868Z,90.83
2024-01-16T05:59:58.836Z,71.69
2024-01-16T06:03:41.809Z,66.82
2024-01-16T06:07:26.058Z,66.45
2024-01-16T06:11:10.084Z,65.63
2024-01-16T06:14:54.018Z,65.96
2024-01-16T06:18:37.232Z,66.24
2024-01-16T06:22:20.336Z,66.59
2024-01-16T06:26:04.703Z,66.52
2024-01-16T06:29:47.784Z,67.23
2024-01-16T06:33:31.002Z,67.68
2024-01-16T06:37:14.004Z,67.84
2024-01-16T06:40:57.297Z,67.65
2024-01-16T06:44:41.686Z,67.54
2024-01-16T06:48:24.851Z,67.85
2024-01-16T06:52:10.301Z,67.17
2024-01-16T06:55:53.166Z,67.31
2024-01-16T06:59:36.069Z,67.95
2024-01-16T07:03:20.400Z,67.44
2024-01-16T07:07:04.008Z,68.00
2024-01-16T07:10:47.196Z,67.43
2024-01-16T07:14:30.143Z,67.21
2024-01-16T07:18:13.294Z,66.95
2024-01-16T07:21:57.641Z,67.18
2024-01-16T07:25:41.108Z,67.04
2024-01-16T07:29:23.994Z,66.68
2024-01-16T07:33:06.980Z,67.25
2024-01-16T07:36:50.269Z,66.76
2024-01-16T07:40:34.467Z,67.35
2024-01-16T07:44:17.376Z,67.25
2024-01-16T07:48:00.587Z,67.65
2024-01-16T07:51:43.470Z,67.48
2024-01-16T07:55:26.387Z,67.36
2024-01-16T07:59:10.818Z,66.73
2024-01-16T08:02:56.483Z,67.23
2024-01-16T08:06:39.519Z,66.85
2024-01-16T08:10:25.745Z,66.80
2024-01-16T08:14:10.142Z,66.32
2024-01-16T08:17:56.268Z,66.92
2024-01-16T08:21:39.250Z,66.73
2024-01-16T08:25:22.183Z,66.38
2024-01-16T08:29:06.365Z,66.63
2024-01-16T08:32:50.721Z,66.04
2024-01-16T08:36:33.845Z,66.04
2024-01-16T08:40:16.877Z,66.03
2024-01-16T08:44:01.942Z,65.07
2024-01-16T08:47:44.990Z,64.64
2024-01-16T08:51:29.401Z,65.47
2024-01-16T08:55:13.655Z,64.51
2024-01-16T08:58:56.828Z,64.50
2024-01-16T09:02:39.846Z,63.48
2024-01-16T09:06:23.222Z,64.13
2024-01-16T09:10:08.592Z,63.93
2024-01-16T09:13:55.076Z,63.00
2024-01-16T09:17:38.265Z,63.46
2024-01-16T09:21:21.267Z,63.65
2024-01-16T09:25:04.273Z,62.52
2024-01-16T09:28:48.578Z,63.13
2024-01-16T09:32:31.878Z,62.21
2024-01-16T09:36:14.935Z,61.12
2024-01-16T09:39:57.883Z,60.63
2024-01-16T09:43:41.344Z,61.12
2024-01-16T09:47:26.822Z,59.79
2024-01-16T09:51:09.958Z,60.41
2024-01-16T09:54:52.863Z,59.63
2024-01-16T09:58:39.016Z,59.97
2024-01-16T10:02:23.202Z,58.92
2024-01-16T10:06:09.069Z,59.34
2024-01-16T10:09:52.143Z,57.74
2024-01-16T10:13:35.282Z,58.29
2024-01-16T10:17:19.729Z,58.86
2024-01-16T10:21:03.057Z,58.24
2024-01-16T10:24:47.678Z,58.00
2024-01-16T10:28:30.594Z,57.80
2024-01-16T10:32:13.585Z,56.82
2024-01-16T10:36:10.013Z,55.72
2024-01-16T10:39:54.287Z,56.18
2024-01-16T10:43:37.285Z,55.70
2024-01-16T10:47:20.181Z,56.52
2024-01-16T10:51:12.817Z,55.50
2024-01-16T10:54:59.473Z,54.51
2024-01-16T10:58:43.683Z,54.73
2024-01-16T11:02:30.396Z,55.10
2024-01-16T11:06:14.606Z,55.03
2024-01-16T11:09:59.069Z,54.43
2024-01-16T11:13:42.363Z,54.04
2024-01-16T11:17:25.838Z,54.07
2024-01-16T11:21:14.319Z,53.33
2024-01-16T11:25:14.732Z,52.97
2024-01-16T11:28:58.288Z,52.84
2024-01-16T11:32:42.715Z,52.99
2024-01-16T11:37:02.375Z,51.98
2024-01-16T11:40:46.785Z,51.25
2024-01-16T11:44:43.628Z,52.06
2024-01-16T11:48:27.107Z,52.76
2024-01-16T11:52:12.277Z,52.79
2024-01-16T11:56:13.646Z,51.56
2024-01-16T12:00:01.311Z,51.08
2024-01-16T12:03:44.527Z,50.63
2024-01-16T12:07:27.475Z,50.53
2024-01-16T12:11:11.786Z,49.24
2024-01-16T12:14:55.696Z,49.59
2024-01-16T12:18:43.053Z,49.68
2024-01-16T12:22:29.598Z,50.07
2024-01-16T12:26:22.247Z,47.87
2024-01-16T12:30:09.486Z,48.30
2024-01-16T12:33:58.363Z,48.49
2024-01-16T12:37:59.970Z,48.31
2024-01-16T12:41:46.464Z,48.46
2024-01-16T12:45:30.779Z,48.24
2024-01-16T12:49:13.817Z,47.81
2024-01-16T12:53:06.589Z,47.78
2024-01-16T12:57:00.430Z,47.19
2024-01-16T13:00:43.763Z,47.36
2024-01-16T13:04:26.678Z,47.67
2024-01-16T13:08:10.008Z,47.83
2024-01-16T13:11:56.717Z,47.83
2024-01-16T13:15:40.091Z,47.66
2024-01-16T13:19:23.601Z,47.64
2024-01-16T13:23:06.546Z,48.08
2024-01-16T13:26:49.462Z,48.38
2024-01-16T13:30:43.771Z,48.17
2024-01-16T13:34:30.538Z,47.99
2024-01-16T13:38:14.393Z,47.99
2024-01-16T13:41:57.632Z,47.67
2024-01-16T13:45:42.721Z,47.61
2024-01-16T13:49:25.818Z,47.50
2024-01-16T13:53:09.035Z,47.19
2024-01-16T13:57:02.666Z,47.89
2024-01-16T14:00:54.669Z,47.43
2024-01-16T14:04:37.682Z,48.11
2024-01-16T14:08:23.001Z,48.75
2024-01-16T14:12:09.729Z,48.76
2024-01-16T14:15:54.352Z,49.38
2024-01-16T14:19:37.351Z,49.25
2024-01-16T14:23:21.673Z,49.69
2024-01-16T14:27:05.496Z,49.41
2024-01-16T14:30:50.010Z,49.33
2024-01-16T14:34:34.446Z,49.22
2024-01-16T14:38:17.510Z,49.96
2024-01-16T14:42:00.821Z,49.59
2024-01-16T14:45:44.025Z,48.46
2024-01-16T14:49:32.629Z,49.25
2024-01-16T14:53:17.037Z,49.66
2024-01-16T14:57:00.164Z,49.71
2024-01-16T15:00:46.727Z,50.15
2024-01-16T15:04:29.758Z,49.65
2024-01-16T15:08:14.174Z,49.17
2024-01-16T15:11:58.680Z,49.63
2024-01-16T15:15:41.675Z,49.70
2024-01-16T15:19:24.612Z,49.86
2024-01-16T15:23:07.627Z,49.69
2024-01-16T15:26:50.590Z,48.29
2024-01-16T15:30:36.858Z,47.98
2024-01-16T15:34:19.966Z,48.64
2024-01-16T15:38:03.861Z,48.40
2024-01-16T15:41:47.323Z,48.97
2024-01-16T15:45:30.949Z,49.33
2024-01-16T15:49:16.082Z,49.59
2024-01-16T15:52:59.279Z,50.39
2024-01-16T15:56:42.156Z,51.68
2024-01-16T16:00:24.998Z,52.19
2024-01-16T16:04:08.325Z,52.46
2024-01-16T16:07:52.698Z,52.97
2024-01-16T16:11:37.123Z,53.17
2024-01-16T16:15:20.205Z,53.85
2024-01-16T16:19:03.345Z,53.78
2024-01-16T16:22:48.392Z,54.56
2024-01-16T16:26:34.073Z,55.05
2024-01-16T16:30:17.156Z,55.83
2024-01-16T16:34:01.463Z,56.67
2024-01-16T16:37:45.432Z,56.92
2024-01-16T16:41:29.807Z,57.95
2024-01-16T16:45:14.146Z,58.65
2024-01-16T16:48:57.627Z,58.69
2024-01-16T16:52:40.778Z,59.25
2024-01-16T16:56:24.848Z,60.05
2024-01-16T17:00:09.632Z,60.30
2024-01-16T17:03:54.693Z,61.00
2024-01-16T17:07:37.758Z,61.17
2024-01-16T17:11:20.837Z,61.18
2024-01-16T17:15:05.784Z,62.04
2024-01-16T17:18:49.147Z,62.11
2024-01-16T17:22:33.427Z,62.35
2024-01-16T17:26:16.621Z,63.03
2024-01-16T17:29:59.796Z,64.00
2024-01-16T17:33:44.209Z,64.02
2024-01-16T17:37:27.758Z,63.94
2024-01-16T17:41:12.190Z,64.86
2024-01-16T17:44:59.837Z,64.99
2024-01-16T17:48:44.384Z,65.78
2024-01-16T17:52:27.427Z,66.04
2024-01-16T17:56:10.580Z,66.50
2024-01-16T17:59:55.102Z,66.70
2024-01-16T18:03:43.078Z,66.55
2024-01-16T18:07:29.689Z,66.76
2024-01-16T18:11:13.932Z,67.33
2024-01-16T18:14:58.694Z,67.33
2024-01-16T18:18:43.144Z,67.38
2024-01-16T18:22:26.400Z,68.31
2024-01-16T18:26:09.937Z,68.15
2024-01-16T18:29:52.958Z,68.16
2024-01-16T18:33:39.457Z,68.72
2024-01-16T18:37:23.062Z,68.32
2024-01-16T18:41:06.252Z,69.52
2024-01-16T18:44:49.819Z,69.35
2024-01-16T18:48:34.270Z,69.54
2024-01-16T18:52:18.946Z,69.84
2024-01-16T18:56:01.829Z,69.91
2024-01-16T18:59:46.246Z,69.62
2024-01-16T19:03:29.280Z,70.08
2024-01-16T19:07:13.952Z,69.65
2024-01-16T19:10:58.144Z,69.55
2024-01-16T19:14:45.918Z,69.96
2024-01-16T19:18:32.364Z,70.35
2024-01-16T19:22:15.384Z,70.65
2024-01-16T19:25:59.776Z,70.52
2024-01-16T19:29:42.670Z,70.45
2024-01-16T19:33:25.649Z,70.25
2024-01-16T19:37:08.752Z,70.15
2024-01-16T19:40:51.878Z,70.16
2024-01-16T19:44:36.116Z,70.13
2024-01-16T19:48:20.493Z,70.11
2024-01-16T19:52:03.834Z,70.39
2024-01-16T19:55:47.600Z,70.44
2024-01-16T19:59:32.051Z,70.71
2024-01-16T20:03:16.473Z,70.76
2024-01-16T20:06:59.511Z,70.48
2024-01-16T20:10:42.485Z,70.46
2024-01-16T20:14:25.453Z,71.52
2024-01-16T20:18:10.813Z,71.24
2024-01-16T20:21:55.193Z,71.55
2024-01-16T20:25:38.034Z,71.65
2024-01-16T20:29:21.321Z,72.05
2024-01-16T20:33:04.523Z,72.19
2024-01-16T20:36:52.966Z,71.83
2024-01-16T20:40:38.364Z,71.99
2024-01-16T20:44:21.911Z,72.25
2024-01-16T20:48:05.615Z,72.13
2024-01-16T20:51:48.825Z,72.33
2024-01-16T20:55:31.730Z,72.07
2024-01-16T20:59:15.987Z,72.35
2024-01-16T21:02:58.930Z,72.94
2024-01-16T21:06:42.820Z,73.03
2024-01-16T21:10:25.725Z,73.04
2024-01-16T21:14:08.608Z,73.27
2024-01-16T21:17:53.312Z,73.37
2024-01-16T21:21:36.363Z,72.85
2024-01-16T21:25:20.495Z,74.78
2024-01-16T21:29:03.385Z,75.88
2024-01-16T21:32:46.342Z,74.77
2024-01-16T21:36:31.411Z,74.59
2024-01-16T21:40:14.758Z,74.45
2024-01-16T21:43:57.912Z,73.64
2024-01-16T21:47:41.069Z,73.83
2024-01-16T21:51:24.547Z,73.23
2024-01-16T21:55:09.763Z,73.55
2024-01-16T21:58:52.619Z,73.18
2024-01-16T22:02:35.538Z,73.69
2024-01-16T22:06:18.506Z,74.20
2024-01-16T22:10:01.619Z,74.24
2024-01-16T22:13:46.185Z,74.00
2024-01-16T22:17:30.572Z,73.92
2024-01-16T22:21:13.606Z,74.27
2024-01-16T22:24:56.515Z,73.98
2024-01-16T22:28:44.507Z,74.59
2024-01-16T22:32:30.346Z,74.32
2024-01-16T22:36:16.221Z,75.30
2024-01-16T22:39:59.113Z,74.67
2024-01-16T22:43:41.990Z,74.97
2024-01-16T22:47:24.978Z,74.45
2024-01-16T22:51:10.490Z,74.50
2024-01-16T22:54:53.525Z,74.61
2024-01-16T22:58:36.432Z,74.67
2024-01-16T23:02:19.305Z,74.31
2024-01-16T23:06:02.740Z,74.34
2024-01-16T23:09:48.154Z,73.99
2024-01-16T23:13:31.334Z,74.38
2024-01-16T23:17:14.185Z,74.03
2024-01-16T23:20:57.082Z,73.71
2024-01-16T23:24:40.030Z,73.36
2024-01-16T23:28:24.314Z,73.31
2024-01-16T23:32:08.409Z,73.73
2024-01-16T23:35:51.281Z,73.93
2024-01-16T23:39:35.668Z,73.78
2024-01-16T23:43:24.160Z,74.43
2024-01-16T23:47:08.982Z,74.29
2024-01-16T23:50:52.674Z,74.56
2024-01-16T23:54:35.551Z,74.28
2024-01-16T23:58:18.421Z,74.16
